sensor_id;sensor_type;location;lat;lon;timestamp;P1;durP1;ratioP1;P2;durP2;ratioP2
13122;SDS011;6627;50.920;12.050;2023-06-14T00:01:50;5.60;;;4.67;;
13122;SDS011;6627;50.920;12.050;2023-06-14T00:04:19;6.33;;;4.40;;
13122;SDS011;6627;50.920;12.050;2023-06-14T00:06:47;6.57;;;4.70;;
13122;SDS011;6627;50.920;12.050;2023-06-14T00:09:16;7.23;;;4.63;;
13122;SDS011;6627;50.920;12.050;2023-06-14T00:11:43;6.27;;;4.47;;
13122;SDS011;6627;50.920;12.050;2023-06-14T00:14:11;5.87;;;4.40;;
13122;SDS011;6627;50.920;12.050;2023-06-14T00:16:39;7.93;;;4.50;;
13122;SDS011;6627;50.920;12.050;2023-06-14T00:19:08;5.57;;;4.20;;
13122;SDS011;6627;50.920;12.050;2023-06-14T00:21:37;5.90;;;4.63;;
13122;SDS011;6627;50.920;12.050;2023-06-14T00:24:05;6.03;;;4.60;;
13122;SDS011;6627;50.920;12.050;2023-06-14T00:26:33;5.23;;;4.40;;
13122;SDS011;6627;50.920;12.050;2023-06-14T00:29:02;6.20;;;3.80;;
13122;SDS011;6627;50.920;12.050;2023-06-14T00:31:29;5.83;;;4.00;;
13122;SDS011;6627;50.920;12.050;2023-06-14T00:33:56;4.53;;;4.13;;
13122;SDS011;6627;50.920;12.050;2023-06-14T00:36:23;6.13;;;4.20;;
13122;SDS011;6627;50.920;12.050;2023-06-14T00:38:52;5.70;;;4.20;;
13122;SDS011;6627;50.920;12.050;2023-06-14T00:41:19;4.50;;;3.80;;
13122;SDS011;6627;50.920;12.050;2023-06-14T00:43:47;6.47;;;4.20;;
13122;SDS011;6627;50.920;12.050;2023-06-14T00:46:14;6.40;;;4.47;;
13122;SDS011;6627;50.920;12.050;2023-06-14T00:48:41;5.30;;;4.40;;
13122;SDS011;6627;50.920;12.050;2023-06-14T00:51:09;6.40;;;4.13;;
13122;SDS011;6627;50.920;12.050;2023-06-14T00:53:36;6.03;;;4.27;;
13122;SDS011;6627;50.920;12.050;2023-06-14T00:56:06;5.23;;;4.27;;
13122;SDS011;6627;50.920;12.050;2023-06-14T00:58:34;5.90;;;4.57;;
13122;SDS011;6627;50.920;12.050;2023-06-14T01:01:01;5.47;;;4.20;;
13122;SDS011;6627;50.920;12.050;2023-06-14T01:03:28;6.23;;;4.40;;
13122;SDS011;6627;50.920;12.050;2023-06-14T01:05:59;6.53;;;4.43;;
13122;SDS011;6627;50.920;12.050;2023-06-14T01:08:41;5.47;;;4.30;;
13122;SDS011;6627;50.920;12.050;2023-06-14T01:11:23;4.73;;;4.10;;
13122;SDS011;6627;50.920;12.050;2023-06-14T01:13:57;7.33;;;4.50;;
13122;SDS011;6627;50.920;12.050;2023-06-14T01:16:29;5.67;;;4.10;;
13122;SDS011;6627;50.920;12.050;2023-06-14T01:18:58;5.20;;;4.70;;
13122;SDS011;6627;50.920;12.050;2023-06-14T01:21:27;6.53;;;4.67;;
13122;SDS011;6627;50.920;12.050;2023-06-14T01:23:56;6.20;;;4.70;;
13122;SDS011;6627;50.920;12.050;2023-06-14T01:26:24;5.83;;;4.07;;
13122;SDS011;6627;50.920;12.050;2023-06-14T01:28:54;7.83;;;5.00;;
13122;SDS011;6627;50.920;12.050;2023-06-14T01:31:24;6.47;;;4.80;;
13122;SDS011;6627;50.920;12.050;2023-06-14T01:33:52;5.47;;;4.53;;
13122;SDS011;6627;50.920;12.050;2023-06-14T01:36:21;5.17;;;4.63;;
13122;SDS011;6627;50.920;12.050;2023-06-14T01:38:53;6.30;;;4.73;;
13122;SDS011;6627;50.920;12.050;2023-06-14T01:41:23;7.70;;;4.87;;
13122;SDS011;6627;50.920;12.050;2023-06-14T01:43:52;10.50;;;4.63;;
13122;SDS011;6627;50.920;12.050;2023-06-14T01:46:21;9.50;;;5.23;;
13122;SDS011;6627;50.920;12.050;2023-06-14T01:48:49;6.33;;;4.67;;
13122;SDS011;6627;50.920;12.050;2023-06-14T01:51:17;5.50;;;4.63;;
13122;SDS011;6627;50.920;12.050;2023-06-14T01:53:45;6.87;;;4.73;;
13122;SDS011;6627;50.920;12.050;2023-06-14T01:56:12;10.00;;;4.73;;
13122;SDS011;6627;50.920;12.050;2023-06-14T01:58:40;5.10;;;4.40;;
13122;SDS011;6627;50.920;12.050;2023-06-14T02:01:08;6.80;;;5.10;;
13122;SDS011;6627;50.920;12.050;2023-06-14T02:03:37;7.13;;;5.20;;
13122;SDS011;6627;50.920;12.050;2023-06-14T02:06:04;6.07;;;5.10;;
13122;SDS011;6627;50.920;12.050;2023-06-14T02:08:32;6.40;;;5.23;;
13122;SDS011;6627;50.920;12.050;2023-06-14T02:10:59;8.43;;;5.73;;
13122;SDS011;6627;50.920;12.050;2023-06-14T02:13:26;6.30;;;5.20;;
13122;SDS011;6627;50.920;12.050;2023-06-14T02:15:55;7.93;;;5.87;;
13122;SDS011;6627;50.920;12.050;2023-06-14T02:18:22;7.37;;;5.57;;
13122;SDS011;6627;50.920;12.050;2023-06-14T02:20:50;9.40;;;5.93;;
13122;SDS011;6627;50.920;12.050;2023-06-14T02:23:17;10.27;;;6.07;;
13122;SDS011;6627;50.920;12.050;2023-06-14T02:25:44;9.47;;;6.40;;
13122;SDS011;6627;50.920;12.050;2023-06-14T02:28:11;8.07;;;6.47;;
13122;SDS011;6627;50.920;12.050;2023-06-14T02:30:38;10.03;;;6.00;;
13122;SDS011;6627;50.920;12.050;2023-06-14T02:33:07;6.87;;;5.03;;
13122;SDS011;6627;50.920;12.050;2023-06-14T02:35:37;7.40;;;6.10;;
13122;SDS011;6627;50.920;12.050;2023-06-14T02:38:05;8.77;;;5.67;;
13122;SDS011;6627;50.920;12.050;2023-06-14T02:40:32;11.80;;;5.43;;
13122;SDS011;6627;50.920;12.050;2023-06-14T02:42:59;7.00;;;5.50;;
13122;SDS011;6627;50.920;12.050;2023-06-14T02:45:27;9.67;;;5.63;;
13122;SDS011;6627;50.920;12.050;2023-06-14T02:47:54;6.53;;;5.70;;
13122;SDS011;6627;50.920;12.050;2023-06-14T02:50:23;7.47;;;5.90;;
13122;SDS011;6627;50.920;12.050;2023-06-14T02:52:53;8.57;;;5.67;;
13122;SDS011;6627;50.920;12.050;2023-06-14T02:55:22;7.93;;;5.43;;
13122;SDS011;6627;50.920;12.050;2023-06-14T02:57:49;8.43;;;5.20;;
13122;SDS011;6627;50.920;12.050;2023-06-14T03:00:18;6.77;;;5.10;;
13122;SDS011;6627;50.920;12.050;2023-06-14T03:02:46;7.07;;;5.20;;
13122;SDS011;6627;50.920;12.050;2023-06-14T03:05:13;6.67;;;5.13;;
13122;SDS011;6627;50.920;12.050;2023-06-14T03:07:42;6.10;;;5.50;;
13122;SDS011;6627;50.920;12.050;2023-06-14T03:10:10;5.90;;;5.30;;
13122;SDS011;6627;50.920;12.050;2023-06-14T03:12:38;9.40;;;5.60;;
13122;SDS011;6627;50.920;12.050;2023-06-14T03:15:06;8.63;;;5.40;;
13122;SDS011;6627;50.920;12.050;2023-06-14T03:17:36;9.03;;;6.23;;
13122;SDS011;6627;50.920;12.050;2023-06-14T03:20:05;5.60;;;4.90;;
13122;SDS011;6627;50.920;12.050;2023-06-14T03:22:34;7.50;;;5.37;;
13122;SDS011;6627;50.920;12.050;2023-06-14T03:25:03;5.83;;;4.97;;
13122;SDS011;6627;50.920;12.050;2023-06-14T03:27:31;7.37;;;4.60;;
13122;SDS011;6627;50.920;12.050;2023-06-14T03:29:58;6.53;;;5.27;;
13122;SDS011;6627;50.920;12.050;2023-06-14T03:32:26;7.10;;;4.83;;
13122;SDS011;6627;50.920;12.050;2023-06-14T03:34:53;5.57;;;4.40;;
13122;SDS011;6627;50.920;12.050;2023-06-14T03:37:21;10.67;;;4.90;;
13122;SDS011;6627;50.920;12.050;2023-06-14T03:39:48;8.27;;;4.80;;
13122;SDS011;6627;50.920;12.050;2023-06-14T03:42:16;7.73;;;4.90;;
13122;SDS011;6627;50.920;12.050;2023-06-14T03:44:44;5.23;;;4.73;;
13122;SDS011;6627;50.920;12.050;2023-06-14T03:47:11;5.40;;;4.83;;
13122;SDS011;6627;50.920;12.050;2023-06-14T03:49:38;6.87;;;5.40;;
13122;SDS011;6627;50.920;12.050;2023-06-14T03:52:06;6.00;;;5.47;;
13122;SDS011;6627;50.920;12.050;2023-06-14T03:54:33;6.50;;;5.23;;
13122;SDS011;6627;50.920;12.050;2023-06-14T03:57:01;7.77;;;4.93;;
13122;SDS011;6627;50.920;12.050;2023-06-14T03:59:29;9.10;;;5.10;;
13122;SDS011;6627;50.920;12.050;2023-06-14T04:01:57;6.10;;;4.73;;
13122;SDS011;6627;50.920;12.050;2023-06-14T04:04:24;6.47;;;5.03;;
13122;SDS011;6627;50.920;12.050;2023-06-14T04:06:54;11.10;;;5.30;;
13122;SDS011;6627;50.920;12.050;2023-06-14T04:09:22;7.07;;;4.70;;
13122;SDS011;6627;50.920;12.050;2023-06-14T04:11:50;5.50;;;4.97;;
13122;SDS011;6627;50.920;12.050;2023-06-14T04:14:18;6.23;;;4.53;;
13122;SDS011;6627;50.920;12.050;2023-06-14T04:16:47;12.90;;;4.53;;
13122;SDS011;6627;50.920;12.050;2023-06-14T04:19:15;6.30;;;5.10;;
13122;SDS011;6627;50.920;12.050;2023-06-14T04:21:43;6.43;;;4.40;;
13122;SDS011;6627;50.920;12.050;2023-06-14T04:24:10;8.30;;;4.50;;
13122;SDS011;6627;50.920;12.050;2023-06-14T04:26:39;5.43;;;3.90;;
13122;SDS011;6627;50.920;12.050;2023-06-14T04:29:10;7.17;;;4.30;;
13122;SDS011;6627;50.920;12.050;2023-06-14T04:31:39;7.70;;;4.83;;
13122;SDS011;6627;50.920;12.050;2023-06-14T04:34:08;7.80;;;4.57;;
13122;SDS011;6627;50.920;12.050;2023-06-14T04:36:42;6.17;;;4.43;;
13122;SDS011;6627;50.920;12.050;2023-06-14T04:39:14;6.13;;;4.60;;
13122;SDS011;6627;50.920;12.050;2023-06-14T04:41:43;8.93;;;4.60;;
13122;SDS011;6627;50.920;12.050;2023-06-14T04:44:10;4.57;;;4.07;;
13122;SDS011;6627;50.920;12.050;2023-06-14T04:46:38;8.50;;;4.67;;
13122;SDS011;6627;50.920;12.050;2023-06-14T04:49:12;5.57;;;4.20;;
13122;SDS011;6627;50.920;12.050;2023-06-14T04:51:41;4.83;;;4.13;;
13122;SDS011;6627;50.920;12.050;2023-06-14T04:54:08;4.67;;;3.80;;
13122;SDS011;6627;50.920;12.050;2023-06-14T04:56:39;8.53;;;4.57;;
13122;SDS011;6627;50.920;12.050;2023-06-14T04:59:07;10.40;;;4.00;;
13122;SDS011;6627;50.920;12.050;2023-06-14T05:01:36;5.67;;;4.07;;
13122;SDS011;6627;50.920;12.050;2023-06-14T05:04:04;9.03;;;4.00;;
13122;SDS011;6627;50.920;12.050;2023-06-14T05:06:32;5.83;;;3.73;;
13122;SDS011;6627;50.920;12.050;2023-06-14T05:08:59;6.43;;;4.30;;
13122;SDS011;6627;50.920;12.050;2023-06-14T05:11:27;6.03;;;4.10;;
13122;SDS011;6627;50.920;12.050;2023-06-14T05:13:54;5.60;;;3.80;;
13122;SDS011;6627;50.920;12.050;2023-06-14T05:16:23;8.20;;;4.43;;
13122;SDS011;6627;50.920;12.050;2023-06-14T05:18:51;4.70;;;3.80;;
13122;SDS011;6627;50.920;12.050;2023-06-14T05:21:18;7.07;;;4.27;;
13122;SDS011;6627;50.920;12.050;2023-06-14T05:23:47;7.40;;;3.87;;
13122;SDS011;6627;50.920;12.050;2023-06-14T05:26:14;8.87;;;4.60;;
13122;SDS011;6627;50.920;12.050;2023-06-14T05:28:41;5.03;;;4.37;;
13122;SDS011;6627;50.920;12.050;2023-06-14T05:31:09;7.97;;;4.27;;
13122;SDS011;6627;50.920;12.050;2023-06-14T05:33:36;5.43;;;3.93;;
13122;SDS011;6627;50.920;12.050;2023-06-14T05:36:04;5.90;;;3.97;;
13122;SDS011;6627;50.920;12.050;2023-06-14T05:38:31;5.10;;;4.60;;
13122;SDS011;6627;50.920;12.050;2023-06-14T05:40:59;9.33;;;4.63;;
13122;SDS011;6627;50.920;12.050;2023-06-14T05:43:27;5.93;;;4.23;;
13122;SDS011;6627;50.920;12.050;2023-06-14T05:45:54;6.67;;;4.43;;
13122;SDS011;6627;50.920;12.050;2023-06-14T05:48:22;5.90;;;4.73;;
13122;SDS011;6627;50.920;12.050;2023-06-14T05:50:49;5.30;;;4.50;;
13122;SDS011;6627;50.920;12.050;2023-06-14T05:53:16;7.37;;;4.90;;
13122;SDS011;6627;50.920;12.050;2023-06-14T05:55:44;6.70;;;4.50;;
13122;SDS011;6627;50.920;12.050;2023-06-14T05:58:12;6.80;;;5.33;;
13122;SDS011;6627;50.920;12.050;2023-06-14T06:00:40;6.70;;;4.80;;
13122;SDS011;6627;50.920;12.050;2023-06-14T06:03:07;8.00;;;4.97;;
13122;SDS011;6627;50.920;12.050;2023-06-14T06:05:34;7.70;;;4.53;;
13122;SDS011;6627;50.920;12.050;2023-06-14T06:08:02;5.37;;;4.87;;
13122;SDS011;6627;50.920;12.050;2023-06-14T06:10:29;5.83;;;4.47;;
13122;SDS011;6627;50.920;12.050;2023-06-14T06:12:56;8.57;;;4.63;;
13122;SDS011;6627;50.920;12.050;2023-06-14T06:15:25;5.90;;;4.60;;
13122;SDS011;6627;50.920;12.050;2023-06-14T06:17:52;8.77;;;4.80;;
13122;SDS011;6627;50.920;12.050;2023-06-14T06:20:20;7.70;;;4.57;;
13122;SDS011;6627;50.920;12.050;2023-06-14T06:22:53;4.67;;;4.10;;
13122;SDS011;6627;50.920;12.050;2023-06-14T06:25:20;5.73;;;4.40;;
13122;SDS011;6627;50.920;12.050;2023-06-14T06:27:51;11.50;;;4.73;;
13122;SDS011;6627;50.920;12.050;2023-06-14T06:30:19;8.10;;;4.63;;
13122;SDS011;6627;50.920;12.050;2023-06-14T06:32:48;7.67;;;4.53;;
13122;SDS011;6627;50.920;12.050;2023-06-14T06:35:16;4.57;;;4.03;;
13122;SDS011;6627;50.920;12.050;2023-06-14T06:37:43;7.03;;;4.90;;
13122;SDS011;6627;50.920;12.050;2023-06-14T06:40:11;6.07;;;4.70;;
13122;SDS011;6627;50.920;12.050;2023-06-14T06:42:38;4.80;;;4.40;;
13122;SDS011;6627;50.920;12.050;2023-06-14T06:45:06;4.73;;;3.90;;
13122;SDS011;6627;50.920;12.050;2023-06-14T06:47:34;5.13;;;4.63;;
13122;SDS011;6627;50.920;12.050;2023-06-14T06:50:03;7.10;;;5.30;;
13122;SDS011;6627;50.920;12.050;2023-06-14T06:52:33;5.07;;;4.50;;
13122;SDS011;6627;50.920;12.050;2023-06-14T06:55:00;5.00;;;4.50;;
13122;SDS011;6627;50.920;12.050;2023-06-14T06:57:28;5.80;;;4.40;;
13122;SDS011;6627;50.920;12.050;2023-06-14T06:59:56;7.90;;;4.97;;
13122;SDS011;6627;50.920;12.050;2023-06-14T07:02:24;4.90;;;4.10;;
13122;SDS011;6627;50.920;12.050;2023-06-14T07:04:51;4.67;;;4.23;;
13122;SDS011;6627;50.920;12.050;2023-06-14T07:07:20;5.47;;;4.73;;
13122;SDS011;6627;50.920;12.050;2023-06-14T07:09:47;4.63;;;4.10;;
13122;SDS011;6627;50.920;12.050;2023-06-14T07:12:14;8.63;;;4.47;;
13122;SDS011;6627;50.920;12.050;2023-06-14T07:14:42;7.30;;;4.60;;
13122;SDS011;6627;50.920;12.050;2023-06-14T07:17:09;4.70;;;4.30;;
13122;SDS011;6627;50.920;12.050;2023-06-14T07:19:36;4.73;;;4.23;;
13122;SDS011;6627;50.920;12.050;2023-06-14T07:22:03;9.63;;;4.13;;
13122;SDS011;6627;50.920;12.050;2023-06-14T07:24:32;4.43;;;4.03;;
13122;SDS011;6627;50.920;12.050;2023-06-14T07:27:01;4.17;;;3.77;;
13122;SDS011;6627;50.920;12.050;2023-06-14T07:29:30;7.60;;;4.00;;
13122;SDS011;6627;50.920;12.050;2023-06-14T07:31:57;4.47;;;3.87;;
13122;SDS011;6627;50.920;12.050;2023-06-14T07:34:24;4.10;;;3.70;;
13122;SDS011;6627;50.920;12.050;2023-06-14T07:36:51;4.37;;;3.90;;
13122;SDS011;6627;50.920;12.050;2023-06-14T07:39:19;6.50;;;4.00;;
13122;SDS011;6627;50.920;12.050;2023-06-14T07:41:49;4.77;;;4.13;;
13122;SDS011;6627;50.920;12.050;2023-06-14T07:44:16;6.40;;;3.77;;
13122;SDS011;6627;50.920;12.050;2023-06-14T07:46:43;5.30;;;3.63;;
13122;SDS011;6627;50.920;12.050;2023-06-14T07:49:11;4.27;;;3.87;;
13122;SDS011;6627;50.920;12.050;2023-06-14T07:51:39;3.50;;;3.20;;
13122;SDS011;6627;50.920;12.050;2023-06-14T07:54:06;7.10;;;3.83;;
13122;SDS011;6627;50.920;12.050;2023-06-14T07:56:34;4.13;;;3.73;;
13122;SDS011;6627;50.920;12.050;2023-06-14T07:59:03;7.37;;;3.70;;
13122;SDS011;6627;50.920;12.050;2023-06-14T08:01:31;5.73;;;4.10;;
13122;SDS011;6627;50.920;12.050;2023-06-14T08:03:59;4.63;;;3.40;;
13122;SDS011;6627;50.920;12.050;2023-06-14T08:06:26;6.07;;;4.20;;
13122;SDS011;6627;50.920;12.050;2023-06-14T08:08:53;4.83;;;4.17;;
13122;SDS011;6627;50.920;12.050;2023-06-14T08:11:21;5.50;;;3.93;;
13122;SDS011;6627;50.920;12.050;2023-06-14T08:13:49;4.80;;;4.10;;
13122;SDS011;6627;50.920;12.050;2023-06-14T08:16:18;8.53;;;3.80;;
13122;SDS011;6627;50.920;12.050;2023-06-14T08:18:45;6.10;;;4.07;;
13122;SDS011;6627;50.920;12.050;2023-06-14T08:21:12;3.93;;;3.50;;
13122;SDS011;6627;50.920;12.050;2023-06-14T08:23:40;4.37;;;3.97;;
13122;SDS011;6627;50.920;12.050;2023-06-14T08:26:08;7.67;;;4.00;;
13122;SDS011;6627;50.920;12.050;2023-06-14T08:28:36;5.80;;;4.13;;
13122;SDS011;6627;50.920;12.050;2023-06-14T08:31:03;9.00;;;4.07;;
13122;SDS011;6627;50.920;12.050;2023-06-14T08:33:32;9.90;;;4.33;;
13122;SDS011;6627;50.920;12.050;2023-06-14T08:36:00;5.17;;;3.90;;
13122;SDS011;6627;50.920;12.050;2023-06-14T08:38:27;4.03;;;3.60;;
13122;SDS011;6627;50.920;12.050;2023-06-14T08:40:56;4.27;;;3.83;;
13122;SDS011;6627;50.920;12.050;2023-06-14T08:43:24;4.30;;;3.90;;
13122;SDS011;6627;50.920;12.050;2023-06-14T08:45:53;4.10;;;3.70;;
13122;SDS011;6627;50.920;12.050;2023-06-14T08:48:29;6.60;;;3.60;;
13122;SDS011;6627;50.920;12.050;2023-06-14T08:51:00;4.87;;;3.53;;
13122;SDS011;6627;50.920;12.050;2023-06-14T08:53:29;5.17;;;3.90;;
13122;SDS011;6627;50.920;12.050;2023-06-14T08:55:59;6.53;;;4.20;;
13122;SDS011;6627;50.920;12.050;2023-06-14T08:58:27;4.97;;;3.63;;
13122;SDS011;6627;50.920;12.050;2023-06-14T09:00:56;7.00;;;3.23;;
13122;SDS011;6627;50.920;12.050;2023-06-14T09:03:24;6.73;;;3.70;;
13122;SDS011;6627;50.920;12.050;2023-06-14T09:05:55;4.73;;;3.60;;
13122;SDS011;6627;50.920;12.050;2023-06-14T09:08:26;4.73;;;3.37;;
13122;SDS011;6627;50.920;12.050;2023-06-14T09:10:56;4.63;;;3.13;;
13122;SDS011;6627;50.920;12.050;2023-06-14T09:13:24;4.73;;;3.07;;
13122;SDS011;6627;50.920;12.050;2023-06-14T09:15:53;5.33;;;3.30;;
13122;SDS011;6627;50.920;12.050;2023-06-14T09:18:21;3.40;;;3.10;;
13122;SDS011;6627;50.920;12.050;2023-06-14T09:20:48;4.97;;;3.67;;
13122;SDS011;6627;50.920;12.050;2023-06-14T09:23:20;5.53;;;3.20;;
13122;SDS011;6627;50.920;12.050;2023-06-14T09:25:49;9.00;;;3.10;;
13122;SDS011;6627;50.920;12.050;2023-06-14T09:28:17;6.57;;;3.73;;
13122;SDS011;6627;50.920;12.050;2023-06-14T09:30:45;3.60;;;3.27;;
13122;SDS011;6627;50.920;12.050;2023-06-14T09:33:16;3.97;;;3.30;;
13122;SDS011;6627;50.920;12.050;2023-06-14T09:35:45;3.40;;;3.10;;
13122;SDS011;6627;50.920;12.050;2023-06-14T09:38:12;6.33;;;3.50;;
13122;SDS011;6627;50.920;12.050;2023-06-14T09:40:39;3.67;;;3.27;;
13122;SDS011;6627;50.920;12.050;2023-06-14T09:43:07;4.97;;;3.30;;
13122;SDS011;6627;50.920;12.050;2023-06-14T09:45:35;3.60;;;3.07;;
13122;SDS011;6627;50.920;12.050;2023-06-14T09:48:05;7.93;;;3.27;;
13122;SDS011;6627;50.920;12.050;2023-06-14T09:50:34;5.00;;;3.13;;
13122;SDS011;6627;50.920;12.050;2023-06-14T09:53:03;7.63;;;3.10;;
13122;SDS011;6627;50.920;12.050;2023-06-14T09:55:34;5.80;;;3.00;;
13122;SDS011;6627;50.920;12.050;2023-06-14T09:58:05;7.20;;;3.20;;
13122;SDS011;6627;50.920;12.050;2023-06-14T10:00:36;4.80;;;3.23;;
13122;SDS011;6627;50.920;12.050;2023-06-14T10:03:11;5.40;;;2.73;;
13122;SDS011;6627;50.920;12.050;2023-06-14T10:05:41;3.77;;;3.30;;
13122;SDS011;6627;50.920;12.050;2023-06-14T10:08:13;5.70;;;3.40;;
13122;SDS011;6627;50.920;12.050;2023-06-14T10:10:43;3.40;;;2.73;;
13122;SDS011;6627;50.920;12.050;2023-06-14T10:13:12;9.73;;;3.17;;
13122;SDS011;6627;50.920;12.050;2023-06-14T10:15:42;9.07;;;3.20;;
13122;SDS011;6627;50.920;12.050;2023-06-14T10:18:24;5.80;;;3.07;;
13122;SDS011;6627;50.920;12.050;2023-06-14T10:21:07;3.50;;;2.90;;
13122;SDS011;6627;50.920;12.050;2023-06-14T10:23:44;4.80;;;3.07;;
13122;SDS011;6627;50.920;12.050;2023-06-14T10:26:18;5.67;;;3.00;;
13122;SDS011;6627;50.920;12.050;2023-06-14T10:28:58;3.30;;;2.97;;
13122;SDS011;6627;50.920;12.050;2023-06-14T10:31:40;4.60;;;3.17;;
13122;SDS011;6627;50.920;12.050;2023-06-14T10:34:09;5.13;;;3.23;;
13122;SDS011;6627;50.920;12.050;2023-06-14T10:36:37;3.23;;;2.90;;
13122;SDS011;6627;50.920;12.050;2023-06-14T10:39:11;5.93;;;2.77;;
13122;SDS011;6627;50.920;12.050;2023-06-14T10:41:50;6.33;;;3.20;;
13122;SDS011;6627;50.920;12.050;2023-06-14T10:47:20;2.93;;;2.63;;
13122;SDS011;6627;50.920;12.050;2023-06-14T10:49:52;6.27;;;3.27;;
13122;SDS011;6627;50.920;12.050;2023-06-14T10:52:22;6.90;;;3.43;;
13122;SDS011;6627;50.920;12.050;2023-06-14T10:54:59;8.67;;;3.10;;
13122;SDS011;6627;50.920;12.050;2023-06-14T10:57:31;3.53;;;2.87;;
13122;SDS011;6627;50.920;12.050;2023-06-14T11:00:00;8.00;;;3.30;;
13122;SDS011;6627;50.920;12.050;2023-06-14T11:02:58;3.87;;;3.30;;
13122;SDS011;6627;50.920;12.050;2023-06-14T11:05:59;4.13;;;2.90;;
13122;SDS011;6627;50.920;12.050;2023-06-14T11:08:37;6.10;;;3.23;;
13122;SDS011;6627;50.920;12.050;2023-06-14T11:11:38;6.97;;;3.20;;
13122;SDS011;6627;50.920;12.050;2023-06-14T11:14:10;6.53;;;3.27;;
13122;SDS011;6627;50.920;12.050;2023-06-14T11:16:38;4.17;;;3.07;;
13122;SDS011;6627;50.920;12.050;2023-06-14T11:19:06;4.43;;;2.87;;
13122;SDS011;6627;50.920;12.050;2023-06-14T11:21:33;4.97;;;2.90;;
13122;SDS011;6627;50.920;12.050;2023-06-14T11:24:09;6.73;;;3.00;;
13122;SDS011;6627;50.920;12.050;2023-06-14T11:26:38;4.93;;;3.20;;
13122;SDS011;6627;50.920;12.050;2023-06-14T11:29:07;3.30;;;3.00;;
13122;SDS011;6627;50.920;12.050;2023-06-14T11:31:34;4.90;;;2.87;;
13122;SDS011;6627;50.920;12.050;2023-06-14T11:34:03;5.90;;;2.83;;
13122;SDS011;6627;50.920;12.050;2023-06-14T11:36:33;3.40;;;2.73;;
13122;SDS011;6627;50.920;12.050;2023-06-14T11:39:01;3.07;;;2.87;;
13122;SDS011;6627;50.920;12.050;2023-06-14T11:41:35;4.80;;;2.97;;
13122;SDS011;6627;50.920;12.050;2023-06-14T11:44:05;3.80;;;3.40;;
13122;SDS011;6627;50.920;12.050;2023-06-14T11:46:34;3.37;;;2.93;;
13122;SDS011;6627;50.920;12.050;2023-06-14T11:49:02;5.67;;;2.93;;
13122;SDS011;6627;50.920;12.050;2023-06-14T11:51:32;2.83;;;2.53;;
13122;SDS011;6627;50.920;12.050;2023-06-14T11:54:02;5.67;;;3.03;;
13122;SDS011;6627;50.920;12.050;2023-06-14T11:56:31;4.83;;;2.90;;
13122;SDS011;6627;50.920;12.050;2023-06-14T11:58:58;4.73;;;3.13;;
13122;SDS011;6627;50.920;12.050;2023-06-14T12:01:26;4.13;;;2.90;;
13122;SDS011;6627;50.920;12.050;2023-06-14T12:03:54;2.93;;;2.73;;
13122;SDS011;6627;50.920;12.050;2023-06-14T12:06:29;4.33;;;3.00;;
13122;SDS011;6627;50.920;12.050;2023-06-14T12:09:03;3.30;;;3.00;;
13122;SDS011;6627;50.920;12.050;2023-06-14T12:11:33;4.17;;;3.10;;
13122;SDS011;6627;50.920;12.050;2023-06-14T12:14:02;6.50;;;2.77;;
13122;SDS011;6627;50.920;12.050;2023-06-14T12:16:31;4.07;;;3.00;;
13122;SDS011;6627;50.920;12.050;2023-06-14T12:19:07;3.17;;;2.70;;
13122;SDS011;6627;50.920;12.050;2023-06-14T12:21:38;5.27;;;3.00;;
13122;SDS011;6627;50.920;12.050;2023-06-14T12:24:07;3.03;;;2.73;;
13122;SDS011;6627;50.920;12.050;2023-06-14T12:26:38;5.17;;;2.90;;
13122;SDS011;6627;50.920;12.050;2023-06-14T12:29:06;8.23;;;3.00;;
13122;SDS011;6627;50.920;12.050;2023-06-14T12:31:34;3.80;;;2.73;;
13122;SDS011;6627;50.920;12.050;2023-06-14T12:34:02;3.53;;;2.60;;
13122;SDS011;6627;50.920;12.050;2023-06-14T12:36:29;2.83;;;2.40;;
13122;SDS011;6627;50.920;12.050;2023-06-14T12:38:58;4.03;;;2.50;;
13122;SDS011;6627;50.920;12.050;2023-06-14T12:41:26;4.03;;;2.70;;
13122;SDS011;6627;50.920;12.050;2023-06-14T12:43:53;3.10;;;2.80;;
13122;SDS011;6627;50.920;12.050;2023-06-14T12:46:21;3.60;;;2.97;;
13122;SDS011;6627;50.920;12.050;2023-06-14T12:48:48;3.07;;;2.87;;
13122;SDS011;6627;50.920;12.050;2023-06-14T12:51:15;4.60;;;2.60;;
13122;SDS011;6627;50.920;12.050;2023-06-14T12:53:42;5.40;;;2.57;;
13122;SDS011;6627;50.920;12.050;2023-06-14T12:56:11;3.73;;;2.50;;
13122;SDS011;6627;50.920;12.050;2023-06-14T12:58:39;5.07;;;2.60;;
13122;SDS011;6627;50.920;12.050;2023-06-14T13:01:06;2.90;;;2.17;;
13122;SDS011;6627;50.920;12.050;2023-06-14T13:03:33;5.77;;;2.23;;
13122;SDS011;6627;50.920;12.050;2023-06-14T13:06:01;2.50;;;2.20;;
13122;SDS011;6627;50.920;12.050;2023-06-14T13:08:29;2.90;;;2.40;;
13122;SDS011;6627;50.920;12.050;2023-06-14T13:10:57;2.70;;;2.50;;
13122;SDS011;6627;50.920;12.050;2023-06-14T13:13:25;2.87;;;2.50;;
13122;SDS011;6627;50.920;12.050;2023-06-14T13:15:52;2.40;;;2.20;;
13122;SDS011;6627;50.920;12.050;2023-06-14T13:18:20;2.30;;;2.10;;
13122;SDS011;6627;50.920;12.050;2023-06-14T13:20:47;2.23;;;2.03;;
13122;SDS011;6627;50.920;12.050;2023-06-14T13:23:15;2.43;;;2.23;;
13122;SDS011;6627;50.920;12.050;2023-06-14T13:25:43;2.63;;;2.43;;
13122;SDS011;6627;50.920;12.050;2023-06-14T13:28:11;2.93;;;2.40;;
13122;SDS011;6627;50.920;12.050;2023-06-14T13:30:39;2.53;;;2.00;;
13122;SDS011;6627;50.920;12.050;2023-06-14T13:33:07;4.23;;;2.43;;
13122;SDS011;6627;50.920;12.050;2023-06-14T13:35:34;2.90;;;2.30;;
13122;SDS011;6627;50.920;12.050;2023-06-14T13:38:02;2.50;;;2.23;;
13122;SDS011;6627;50.920;12.050;2023-06-14T13:40:29;2.30;;;2.10;;
13122;SDS011;6627;50.920;12.050;2023-06-14T13:42:56;2.87;;;2.50;;
13122;SDS011;6627;50.920;12.050;2023-06-14T13:45:23;2.83;;;2.40;;
13122;SDS011;6627;50.920;12.050;2023-06-14T13:47:52;4.57;;;2.00;;
13122;SDS011;6627;50.920;12.050;2023-06-14T13:50:20;4.57;;;2.40;;
13122;SDS011;6627;50.920;12.050;2023-06-14T13:52:47;2.37;;;2.17;;
13122;SDS011;6627;50.920;12.050;2023-06-14T13:55:15;4.50;;;2.00;;
13122;SDS011;6627;50.920;12.050;2023-06-14T13:57:43;3.43;;;2.20;;
13122;SDS011;6627;50.920;12.050;2023-06-14T14:00:11;2.80;;;1.90;;
13122;SDS011;6627;50.920;12.050;2023-06-14T14:02:39;2.30;;;2.10;;
13122;SDS011;6627;50.920;12.050;2023-06-14T14:05:08;3.53;;;2.20;;
13122;SDS011;6627;50.920;12.050;2023-06-14T14:07:36;4.60;;;2.37;;
13122;SDS011;6627;50.920;12.050;2023-06-14T14:10:03;4.50;;;2.23;;
13122;SDS011;6627;50.920;12.050;2023-06-14T14:12:32;2.40;;;2.20;;
13122;SDS011;6627;50.920;12.050;2023-06-14T14:14:59;2.43;;;2.23;;
13122;SDS011;6627;50.920;12.050;2023-06-14T14:17:26;2.43;;;2.23;;
13122;SDS011;6627;50.920;12.050;2023-06-14T14:19:54;2.20;;;2.00;;
13122;SDS011;6627;50.920;12.050;2023-06-14T14:22:22;4.10;;;2.20;;
13122;SDS011;6627;50.920;12.050;2023-06-14T14:24:50;2.20;;;2.00;;
13122;SDS011;6627;50.920;12.050;2023-06-14T14:27:17;2.27;;;2.00;;
13122;SDS011;6627;50.920;12.050;2023-06-14T14:29:44;3.07;;;2.43;;
13122;SDS011;6627;50.920;12.050;2023-06-14T14:32:12;2.20;;;1.87;;
13122;SDS011;6627;50.920;12.050;2023-06-14T14:34:39;2.30;;;1.70;;
13122;SDS011;6627;50.920;12.050;2023-06-14T14:37:07;6.10;;;2.00;;
13122;SDS011;6627;50.920;12.050;2023-06-14T14:39:36;2.40;;;2.20;;
13122;SDS011;6627;50.920;12.050;2023-06-14T14:42:04;2.87;;;2.17;;
13122;SDS011;6627;50.920;12.050;2023-06-14T14:44:33;2.47;;;2.27;;
13122;SDS011;6627;50.920;12.050;2023-06-14T14:47:01;2.30;;;2.10;;
13122;SDS011;6627;50.920;12.050;2023-06-14T14:49:28;2.20;;;1.90;;
13122;SDS011;6627;50.920;12.050;2023-06-14T14:51:56;2.70;;;1.90;;
13122;SDS011;6627;50.920;12.050;2023-06-14T14:54:23;2.07;;;1.87;;
13122;SDS011;6627;50.920;12.050;2023-06-14T14:56:52;2.60;;;1.57;;
13122;SDS011;6627;50.920;12.050;2023-06-14T14:59:19;3.07;;;1.80;;
13122;SDS011;6627;50.920;12.050;2023-06-14T15:01:47;3.53;;;1.90;;